createdAt,value
2022-10-11T00:00:43.259Z,17.70
2022-10-11T00:03:30.711Z,16.90
2022-10-11T00:05:58.415Z,15.50
2022-10-11T00:08:26.133Z,15.00
2022-10-11T00:10:59.320Z,16.50
2022-10-11T00:13:27.338Z,15.90
2022-10-11T00:15:55.349Z,15.90
2022-10-11T00:18:23.605Z,16.10
2022-10-11T00:20:51.341Z,17.50
2022-10-11T00:23:19.056Z,17.70
2022-10-11T00:26:00.517Z,15.90
2022-10-11T00:28:28.467Z,16.70
2022-10-11T00:30:56.562Z,15.20
2022-10-11T00:33:24.274Z,16.00
2022-10-11T00:35:52.014Z,15.80
2022-10-11T00:38:19.948Z,16.20
2022-10-11T00:40:47.646Z,16.00
2022-10-11T00:43:18.681Z,21.00
2022-10-11T00:45:58.602Z,18.80
2022-10-11T00:48:50.952Z,16.70
2022-10-11T00:51:49.741Z,18.80
2022-10-11T00:54:20.961Z,15.90
2022-10-11T00:56:51.953Z,18.20
2022-10-11T00:59:25.052Z,18.30
2022-10-11T01:01:52.790Z,16.40
2022-10-11T01:04:20.646Z,19.90
2022-10-11T01:06:49.734Z,18.00
2022-10-11T01:09:18.005Z,17.10
2022-10-11T01:11:46.124Z,16.30
2022-10-11T01:14:57.361Z,17.50
2022-10-11T01:17:34.463Z,16.00
2022-10-11T01:20:27.789Z,21.30
2022-10-11T01:23:17.283Z,15.20
2022-10-11T01:26:27.731Z,17.30
2022-10-11T01:29:26.540Z,17.40
2022-10-11T01:31:59.237Z,17.10
2022-10-11T01:34:38.683Z,16.70
2022-10-11T01:37:25.035Z,19.30
2022-10-11T01:40:00.132Z,16.50
2022-10-11T01:42:28.674Z,19.30
2022-10-11T01:44:56.416Z,17.70
2022-10-11T01:47:24.533Z,17.50
2022-10-11T01:49:57.236Z,16.40
2022-10-11T01:52:27.244Z,17.60
2022-10-11T01:55:16.950Z,15.90
2022-10-11T01:58:44.980Z,17.60
2022-10-11T02:01:40.832Z,18.60
2022-10-11T02:04:20.323Z,16.50
2022-10-11T02:07:00.224Z,17.30
2022-10-11T02:09:36.431Z,17.50
2022-10-11T02:12:07.918Z,18.40
2022-10-11T02:14:39.949Z,15.80
2022-10-11T02:17:12.268Z,16.80
2022-10-11T02:19:47.658Z,15.30
2022-10-11T02:22:30.960Z,17.60
2022-10-11T02:25:00.472Z,17.60
2022-10-11T02:27:30.854Z,18.80
2022-10-11T02:30:00.955Z,17.70
2022-10-11T02:32:28.857Z,19.40
2022-10-11T02:34:59.067Z,20.70
2022-10-11T02:37:41.848Z,20.90
2022-10-11T02:40:29.282Z,23.60
2022-10-11T02:43:17.659Z,22.10
2022-10-11T02:45:50.120Z,16.40
2022-10-11T02:48:18.051Z,15.90
2022-10-11T02:50:45.926Z,18.00
2022-10-11T02:53:13.690Z,14.20
2022-10-11T02:55:41.446Z,17.50
2022-10-11T02:58:09.219Z,20.60
2022-10-11T03:00:36.970Z,16.10
2022-10-11T03:03:04.701Z,18.60
2022-10-11T03:05:37.177Z,16.80
2022-10-11T03:08:04.978Z,17.50
2022-10-11T03:10:33.927Z,17.50
2022-10-11T03:13:01.964Z,17.40
2022-10-11T03:15:29.810Z,17.70
2022-10-11T03:17:57.674Z,18.60
2022-10-11T03:20:25.851Z,15.50
2022-10-11T03:22:53.579Z,17.10
2022-10-11T03:25:21.390Z,14.90
2022-10-11T03:27:49.139Z,16.20
2022-10-11T03:30:18.524Z,17.10
2022-10-11T03:32:46.417Z,14.70
2022-10-11T03:35:14.687Z,15.90
2022-10-11T03:37:42.408Z,15.10
2022-10-11T03:40:11.546Z,15.40
2022-10-11T03:42:39.829Z,16.00
2022-10-11T03:45:09.073Z,20.20
2022-10-11T03:47:40.173Z,15.40
2022-10-11T03:50:09.357Z,15.60
2022-10-11T03:52:37.078Z,14.10
2022-10-11T03:55:06.521Z,13.20
2022-10-11T03:57:34.290Z,15.00
2022-10-11T04:00:02.073Z,14.30
2022-10-11T04:02:35.799Z,16.00
2022-10-11T04:05:07.714Z,14.90
2022-10-11T04:07:35.457Z,17.60
2022-10-11T04:10:03.351Z,15.30
2022-10-11T04:12:31.110Z,14.50
2022-10-11T04:14:58.879Z,17.10
2022-10-11T04:17:26.669Z,17.70
2022-10-11T04:19:54.400Z,16.00
2022-10-11T04:22:22.086Z,19.60
2022-10-11T04:24:49.841Z,15.80
2022-10-11T04:27:17.690Z,16.30
2022-10-11T04:29:45.459Z,16.50
2022-10-11T04:32:13.219Z,15.20
2022-10-11T04:34:41.119Z,15.90
2022-10-11T04:37:08.952Z,15.60
2022-10-11T04:39:37.212Z,16.10
2022-10-11T04:42:05.421Z,17.50
2022-10-11T04:44:33.165Z,17.30
2022-10-11T04:47:01.352Z,18.70
2022-10-11T04:49:29.042Z,14.60
2022-10-11T04:51:56.986Z,15.10
2022-10-11T04:54:25.237Z,16.40
2022-10-11T04:56:53.034Z,16.80
2022-10-11T04:59:20.770Z,16.80
2022-10-11T05:01:48.594Z,16.40
2022-10-11T05:04:16.380Z,16.30
2022-10-11T05:06:44.086Z,15.90
2022-10-11T05:09:11.804Z,17.80
2022-10-11T05:11:39.549Z,17.60
2022-10-11T05:14:07.343Z,16.20
2022-10-11T05:16:35.069Z,15.70
2022-10-11T05:19:02.992Z,19.60
2022-10-11T05:21:31.036Z,18.60
2022-10-11T05:23:59.285Z,17.70
2022-10-11T05:26:28.176Z,18.00
2022-10-11T05:28:56.027Z,17.40
2022-10-11T05:31:23.961Z,17.20
2022-10-11T05:33:51.817Z,21.30
2022-10-11T05:36:19.635Z,16.20
2022-10-11T05:38:47.365Z,16.60
2022-10-11T05:41:15.605Z,17.20
2022-10-11T05:43:44.780Z,17.70
2022-10-11T05:46:12.617Z,19.30
2022-10-11T05:48:40.497Z,15.30
2022-10-11T05:51:09.973Z,16.90
2022-10-11T05:53:38.745Z,17.50
2022-10-11T05:56:21.390Z,17.70
2022-10-11T05:58:49.427Z,16.40
2022-10-11T06:01:25.724Z,21.10
2022-10-11T06:03:53.659Z,16.00
2022-10-11T06:06:21.534Z,17.70
2022-10-11T06:08:49.418Z,17.50
2022-10-11T06:11:20.661Z,16.40
2022-10-11T06:13:49.018Z,17.30
2022-10-11T06:16:16.778Z,17.10
2022-10-11T06:18:44.643Z,17.20
2022-10-11T06:21:13.384Z,17.10
2022-10-11T06:23:41.227Z,19.00
2022-10-11T06:26:10.361Z,14.80
2022-10-11T06:28:38.410Z,16.50
2022-10-11T06:31:06.993Z,17.20
2022-10-11T06:33:35.125Z,19.00
2022-10-11T06:36:07.609Z,18.40
2022-10-11T06:38:35.741Z,14.30
2022-10-11T06:41:30.464Z,18.50
2022-10-11T06:43:58.178Z,17.50
2022-10-11T06:46:27.530Z,20.90
2022-10-11T06:48:56.758Z,17.30
2022-10-11T06:51:24.954Z,18.90
2022-10-11T06:53:56.822Z,16.30
2022-10-11T06:56:26.364Z,16.60
2022-10-11T06:58:54.908Z,16.30
2022-10-11T07:01:24.076Z,17.00
2022-10-11T07:03:53.954Z,18.70
2022-10-11T07:06:27.038Z,16.30
2022-10-11T07:08:54.913Z,17.10
2022-10-11T07:11:26.323Z,18.20
2022-10-11T07:14:04.497Z,17.50
2022-10-11T07:16:32.230Z,17.90
2022-10-11T07:19:01.796Z,20.90
2022-10-11T07:21:30.672Z,19.80
2022-10-11T07:23:58.942Z,19.90
2022-10-11T07:26:28.134Z,16.60
2022-10-11T07:28:56.023Z,17.70
2022-10-11T07:31:25.368Z,18.00
2022-10-11T07:33:53.500Z,17.10
2022-10-11T07:36:23.503Z,19.20
2022-10-11T07:38:51.628Z,19.10
2022-10-11T07:41:19.451Z,16.60
2022-10-11T07:43:51.250Z,18.60
2022-10-11T07:46:19.171Z,17.10
2022-10-11T07:48:47.101Z,24.10
2022-10-11T07:51:18.347Z,16.90
2022-10-11T07:53:48.512Z,17.30
2022-10-11T07:56:19.610Z,17.50
2022-10-11T07:58:55.871Z,19.00
2022-10-11T08:01:24.495Z,20.80
2022-10-11T08:03:53.209Z,20.80
2022-10-11T08:06:23.209Z,17.40
2022-10-11T08:08:51.009Z,19.10
2022-10-11T08:11:30.789Z,17.10
2022-10-11T08:13:59.355Z,16.60
2022-10-11T08:16:27.289Z,15.00
2022-10-11T08:18:57.168Z,16.40
2022-10-11T08:21:26.966Z,18.90
2022-10-11T08:23:54.913Z,14.80
2022-10-11T08:26:22.872Z,18.10
2022-10-11T08:28:50.813Z,15.80
2022-10-11T08:31:18.807Z,13.90
2022-10-11T08:33:46.671Z,17.50
2022-10-11T08:36:14.479Z,16.00
2022-10-11T08:38:42.509Z,15.50
2022-10-11T08:42:04.716Z,17.10
2022-10-11T08:45:05.573Z,12.10
2022-10-11T08:47:30.988Z,11.20
2022-10-11T08:49:59.305Z,15.20
2022-10-11T08:52:44.034Z,10.60
2022-10-11T08:55:38.066Z,10.10
2022-10-11T08:58:05.981Z,10.90
2022-10-11T09:00:34.125Z,11.40
2022-10-11T09:03:42.001Z,9.90
2022-10-11T09:06:40.440Z,11.00
2022-10-11T09:09:26.280Z,13.80
2022-10-11T09:12:36.075Z,10.30
2022-10-11T09:15:17.257Z,9.30
2022-10-11T09:18:45.723Z,11.60
2022-10-11T09:21:47.808Z,9.60
2022-10-11T09:24:34.903Z,10.10
2022-10-11T09:30:28.214Z,10.70
2022-10-11T09:33:12.859Z,10.10
2022-10-11T09:35:45.795Z,12.10
2022-10-11T09:38:24.949Z,8.60
2022-10-11T09:41:13.450Z,8.90
2022-10-11T09:43:45.125Z,9.40
2022-10-11T09:46:37.433Z,11.70
2022-10-11T09:49:10.125Z,8.70
2022-10-11T09:51:37.993Z,10.50
2022-10-11T09:54:06.604Z,7.90
2022-10-11T09:56:35.143Z,9.70
2022-10-11T09:59:28.118Z,9.60
2022-10-11T10:02:14.567Z,9.00
2022-10-11T10:05:06.943Z,10.30
2022-10-11T10:07:35.727Z,11.80
2022-10-11T10:10:34.220Z,12.90
2022-10-11T10:13:04.135Z,9.50
2022-10-11T10:15:36.544Z,9.30
2022-10-11T10:18:06.565Z,8.40
2022-10-11T10:24:04.183Z,11.00
2022-10-11T10:26:32.401Z,6.10
2022-10-11T10:29:09.291Z,7.60
2022-10-11T10:34:50.347Z,7.30
2022-10-11T10:37:29.478Z,7.70
2022-10-11T10:40:05.424Z,7.10
2022-10-11T10:42:33.121Z,8.30
2022-10-11T10:45:00.921Z,6.80
2022-10-11T10:48:05.901Z,8.70
2022-10-11T10:50:56.190Z,8.70
2022-10-11T10:53:27.941Z,6.80
2022-10-11T10:56:19.492Z,15.30
2022-10-11T10:59:25.236Z,18.00
2022-10-11T11:02:21.450Z,11.90
2022-10-11T11:05:00.445Z,15.80
2022-10-11T11:08:09.003Z,15.80
2022-10-11T11:10:47.473Z,10.60
2022-10-11T11:13:42.375Z,10.90
2022-10-11T11:16:45.364Z,7.60
2022-10-11T11:19:53.644Z,8.90
2022-10-11T11:22:44.833Z,14.70
2022-10-11T11:25:34.405Z,10.90
2022-10-11T11:28:43.515Z,10.60
2022-10-11T11:31:37.422Z,10.00
2022-10-11T11:34:22.284Z,6.90
2022-10-11T11:36:58.705Z,7.80
2022-10-11T11:39:51.858Z,8.20
2022-10-11T11:42:40.669Z,6.00
2022-10-11T11:45:50.208Z,7.50
2022-10-11T11:48:26.641Z,7.30
2022-10-11T11:51:15.840Z,9.30
2022-10-11T11:53:55.856Z,8.20
2022-10-11T11:56:31.649Z,7.00
2022-10-11T11:59:41.090Z,10.30
2022-10-11T12:02:44.983Z,9.80
2022-10-11T12:05:16.031Z,7.00
2022-10-11T12:08:06.196Z,12.00
2022-10-11T12:10:39.755Z,6.60
2022-10-11T12:13:34.885Z,7.30
2022-10-11T12:16:11.346Z,7.60
2022-10-11T12:18:57.879Z,11.00
2022-10-11T12:21:33.492Z,7.60
2022-10-11T12:24:23.536Z,7.00
2022-10-11T12:26:58.751Z,10.30
2022-10-11T12:29:49.996Z,6.40
2022-10-11T12:32:28.299Z,6.20
2022-10-11T12:35:53.634Z,3.60
2022-10-11T12:38:34.102Z,4.10
2022-10-11T12:41:10.892Z,7.50
2022-10-11T12:43:47.848Z,5.40
2022-10-11T12:46:33.493Z,5.00
2022-10-11T12:49:41.776Z,10.70
2022-10-11T12:52:37.464Z,6.50
2022-10-11T12:55:13.811Z,6.10
2022-10-11T12:58:09.864Z,5.70
2022-10-11T13:00:40.789Z,7.50
2022-10-11T13:03:35.570Z,5.90
2022-10-11T13:06:25.143Z,6.00
2022-10-11T13:09:02.947Z,5.80
2022-10-11T13:11:34.032Z,8.80
2022-10-11T13:14:25.242Z,6.30
2022-10-11T13:17:08.265Z,4.50
2022-10-11T13:19:37.689Z,4.70
2022-10-11T13:22:18.228Z,8.40
2022-10-11T13:24:46.863Z,10.10
2022-10-11T13:27:21.636Z,3.80
2022-10-11T13:29:50.440Z,7.70
2022-10-11T13:32:24.539Z,6.90
2022-10-11T13:34:58.664Z,6.30
2022-10-11T13:37:27.426Z,7.70
2022-10-11T13:39:56.320Z,8.90
2022-10-11T13:42:32.498Z,6.30
2022-10-11T13:45:00.629Z,6.00
2022-10-11T13:47:30.145Z,4.50
2022-10-11T13:50:11.020Z,6.90
2022-10-11T13:53:09.738Z,7.20
2022-10-11T13:55:55.688Z,32.20
2022-10-11T13:58:41.536Z,19.90
2022-10-11T14:01:27.137Z,7.40
2022-10-11T14:04:05.477Z,9.20
2022-10-11T14:07:02.801Z,6.40
2022-10-11T14:09:37.092Z,6.70
2022-10-11T14:12:44.131Z,5.80
2022-10-11T14:16:07.707Z,7.10
2022-10-11T14:18:44.588Z,6.00
2022-10-11T14:21:30.466Z,5.40
2022-10-11T14:24:05.215Z,4.00
2022-10-11T14:26:44.431Z,6.80
2022-10-11T14:29:26.424Z,5.80
2022-10-11T14:31:59.823Z,6.60
2022-10-11T14:34:27.738Z,8.30
2022-10-11T14:36:55.558Z,6.50
2022-10-11T14:39:25.467Z,6.30
2022-10-11T14:41:53.710Z,6.30
2022-10-11T14:44:22.276Z,6.20
2022-10-11T14:46:54.037Z,9.90
2022-10-11T14:49:25.270Z,7.90
2022-10-11T14:51:54.946Z,7.10
2022-10-11T14:54:25.171Z,6.60
2022-10-11T14:56:54.476Z,7.20
2022-10-11T14:59:25.970Z,4.90
2022-10-11T15:01:54.391Z,7.90
2022-10-11T15:04:23.215Z,7.40
2022-10-11T15:06:52.215Z,5.90
2022-10-11T15:09:22.968Z,6.10
2022-10-11T15:11:52.850Z,3.90
2022-10-11T15:14:22.514Z,6.60
2022-10-11T15:16:50.362Z,6.40
2022-10-11T15:19:20.872Z,7.80
2022-10-11T15:21:48.797Z,6.90
2022-10-11T15:24:16.869Z,5.50
2022-10-11T15:26:45.980Z,6.00
2022-10-11T15:29:13.877Z,7.90
2022-10-11T15:31:41.690Z,6.30
2022-10-11T15:34:09.456Z,9.00
2022-10-11T15:36:37.182Z,7.90
2022-10-11T15:39:34.885Z,10.20
2022-10-11T15:42:02.664Z,9.60
2022-10-11T15:44:30.381Z,12.20
2022-10-11T15:46:58.155Z,11.40
2022-10-11T15:49:25.953Z,15.30
2022-10-11T15:51:53.805Z,17.60
2022-10-11T15:54:21.540Z,12.30
2022-10-11T15:56:49.451Z,9.70
2022-10-11T15:59:17.302Z,9.80
2022-10-11T16:01:45.425Z,12.10
2022-10-11T16:04:13.352Z,16.00
2022-10-11T16:06:41.639Z,13.20
2022-10-11T16:09:09.901Z,15.90
2022-10-11T16:11:37.680Z,13.50
2022-10-11T16:14:06.158Z,14.10
2022-10-11T16:16:33.896Z,13.10
2022-10-11T16:19:01.607Z,11.20
2022-10-11T16:21:29.465Z,11.30
2022-10-11T16:23:57.506Z,10.30
2022-10-11T16:26:25.354Z,14.20
2022-10-11T16:28:53.207Z,14.20
2022-10-11T16:31:21.320Z,17.50
2022-10-11T16:33:50.456Z,14.20
2022-10-11T16:36:36.766Z,14.60
2022-10-11T16:39:12.394Z,22.30
2022-10-11T16:41:40.414Z,22.10
2022-10-11T16:44:10.258Z,20.70
2022-10-11T16:46:38.099Z,22.10
2022-10-11T16:49:06.486Z,23.10
2022-10-11T16:51:34.247Z,28.10
2022-10-11T16:54:02.243Z,27.10
2022-10-11T16:56:30.488Z,24.60
2022-10-11T16:58:58.756Z,25.10
2022-10-11T17:01:26.866Z,19.30
2022-10-11T17:03:55.814Z,24.50
2022-10-11T17:06:24.004Z,27.10
2022-10-11T17:08:52.511Z,32.40
2022-10-11T17:11:22.424Z,22.50
2022-10-11T17:13:51.606Z,20.60
2022-10-11T17:16:20.517Z,21.30
2022-10-11T17:22:15.503Z,57.20
2022-10-11T17:24:44.293Z,49.80
2022-10-11T17:27:12.158Z,45.50
2022-10-11T17:29:46.070Z,44.70
2022-10-11T17:32:15.092Z,42.00
2022-10-11T17:34:42.979Z,44.60
2022-10-11T17:37:12.646Z,54.70
2022-10-11T17:39:40.805Z,48.10
2022-10-11T17:42:09.201Z,55.10
2022-10-11T17:44:37.312Z,42.20
2022-10-11T17:47:06.043Z,38.50
2022-10-11T17:49:34.114Z,31.70
2022-10-11T17:52:01.979Z,28.20
2022-10-11T17:54:29.722Z,26.20
2022-10-11T17:56:58.534Z,24.70
2022-10-11T17:59:31.008Z,25.10
2022-10-11T18:01:59.075Z,27.00
2022-10-11T18:04:29.707Z,23.10
2022-10-11T18:06:57.814Z,25.70
2022-10-11T18:09:25.637Z,31.40
2022-10-11T18:11:53.429Z,33.50
2022-10-11T18:14:21.326Z,37.40
2022-10-11T18:16:49.156Z,35.50
2022-10-11T18:19:17.106Z,31.80
2022-10-11T18:21:44.933Z,36.60
2022-10-11T18:24:15.432Z,32.40
2022-10-11T18:26:45.808Z,30.30
2022-10-11T18:29:15.245Z,31.70
2022-10-11T18:31:43.245Z,28.50
2022-10-11T18:34:11.262Z,30.80
2022-10-11T18:36:39.559Z,29.50
2022-10-11T18:39:09.559Z,23.50
2022-10-11T18:41:38.812Z,22.20
2022-10-11T18:44:08.697Z,21.90
2022-10-11T18:46:36.730Z,23.00
2022-10-11T18:49:04.711Z,26.10
2022-10-11T18:51:40.141Z,28.10
2022-10-11T18:54:09.389Z,25.10
2022-10-11T18:56:37.691Z,27.50
2022-10-11T18:59:06.489Z,27.50
2022-10-11T19:01:40.501Z,27.50
2022-10-11T19:04:09.797Z,30.60
2022-10-11T19:06:40.850Z,30.30
2022-10-11T19:09:15.101Z,41.00
2022-10-11T19:11:42.984Z,47.80
2022-10-11T19:14:14.856Z,45.90
2022-10-11T19:16:46.391Z,43.80
2022-10-11T19:19:14.474Z,43.10
2022-10-11T19:21:42.371Z,58.40
2022-10-11T19:24:10.166Z,64.10
2022-10-11T19:26:39.989Z,41.80
2022-10-11T19:29:15.027Z,38.20
2022-10-11T19:31:45.836Z,33.60
2022-10-11T19:34:14.126Z,33.80
2022-10-11T19:36:42.899Z,34.10
2022-10-11T19:39:13.747Z,35.40
2022-10-11T19:41:41.883Z,32.40
2022-10-11T19:44:10.815Z,34.60
2022-10-11T19:46:51.079Z,32.80
2022-10-11T19:49:25.124Z,30.60
2022-10-11T19:51:55.473Z,40.60
2022-10-11T19:54:23.787Z,42.90
2022-10-11T19:56:51.636Z,43.70
2022-10-11T19:59:19.843Z,46.50
2022-10-11T20:01:52.453Z,44.00
2022-10-11T20:07:09.365Z,33.70
2022-10-11T20:09:37.397Z,33.30
2022-10-11T20:12:07.446Z,30.90
2022-10-11T20:14:35.312Z,31.30
2022-10-11T20:17:04.273Z,31.00
2022-10-11T20:19:34.743Z,32.20
2022-10-11T20:22:02.571Z,27.00
2022-10-11T20:24:33.645Z,25.00
2022-10-11T20:27:04.016Z,24.40
2022-10-11T20:29:31.750Z,28.60
2022-10-11T20:31:59.874Z,26.40
2022-10-11T20:34:27.991Z,29.10
2022-10-11T20:36:56.286Z,27.90
2022-10-11T20:39:24.080Z,30.30
2022-10-11T20:41:53.421Z,29.80
2022-10-11T20:44:21.363Z,30.60
2022-10-11T20:46:49.126Z,26.80
2022-10-11T20:49:20.161Z,39.00
2022-10-11T20:51:48.847Z,34.10
2022-10-11T20:54:16.630Z,44.10
2022-10-11T20:56:44.879Z,41.00
2022-10-11T20:59:12.682Z,35.20
2022-10-11T21:01:41.010Z,35.50
2022-10-11T21:04:17.488Z,34.50
2022-10-11T21:06:45.810Z,33.40
2022-10-11T21:09:15.645Z,28.70
2022-10-11T21:11:45.007Z,31.60
2022-10-11T21:14:12.940Z,31.50
2022-10-11T21:16:40.816Z,29.10
2022-10-11T21:19:12.983Z,26.10
2022-10-11T21:21:40.951Z,32.00
2022-10-11T21:24:08.700Z,30.20
2022-10-11T21:26:36.803Z,34.50
2022-10-11T21:29:04.652Z,29.30
2022-10-11T21:31:34.299Z,49.70
2022-10-11T21:34:05.218Z,65.70
2022-10-11T21:36:33.278Z,64.50
2022-10-11T21:39:01.141Z,59.60
2022-10-11T21:41:30.225Z,57.70
2022-10-11T21:43:58.543Z,46.20
2022-10-11T21:47:04.917Z,44.70
2022-10-11T21:49:18.722Z,38.60
2022-10-11T21:51:46.795Z,36.50
2022-10-11T21:54:14.661Z,36.90
2022-10-11T21:56:42.512Z,33.90
2022-10-11T21:59:12.529Z,31.80
2022-10-11T22:01:42.044Z,29.20
2022-10-11T22:04:10.934Z,29.70
2022-10-11T22:06:39.461Z,32.40
2022-10-11T22:09:07.613Z,30.20
2022-10-11T22:11:36.098Z,29.80
2022-10-11T22:14:03.899Z,38.30
2022-10-11T22:16:33.769Z,31.10
2022-10-11T22:19:02.015Z,30.40
2022-10-11T22:21:29.837Z,25.70
2022-10-11T22:23:57.585Z,29.30
2022-10-11T22:26:29.959Z,25.80
2022-10-11T22:28:59.335Z,30.50
2022-10-11T22:31:27.489Z,34.90
2022-10-11T22:34:00.141Z,31.20
2022-10-11T22:36:30.652Z,26.30
2022-10-11T22:38:59.224Z,32.30
2022-10-11T22:41:27.018Z,29.10
2022-10-11T22:43:54.913Z,26.20
2022-10-11T22:46:22.909Z,28.60
2022-10-11T22:48:50.581Z,25.40
2022-10-11T22:51:19.003Z,28.00
2022-10-11T22:53:46.754Z,27.20
2022-10-11T22:56:14.573Z,26.00
2022-10-11T22:58:42.282Z,33.00
2022-10-11T23:01:11.903Z,26.60
2022-10-11T23:03:39.888Z,28.40
2022-10-11T23:06:08.100Z,23.60
2022-10-11T23:08:35.824Z,23.60
2022-10-11T23:11:07.236Z,24.30
2022-10-11T23:13:35.463Z,27.50
2022-10-11T23:16:08.765Z,25.10
2022-10-11T23:18:36.883Z,24.60
2022-10-11T23:21:05.317Z,21.80
2022-10-11T23:23:33.276Z,24.00
2022-10-11T23:26:21.706Z,24.10
2022-10-11T23:28:54.330Z,31.50
2022-10-11T23:31:22.256Z,25.40
2022-10-11T23:33:50.069Z,22.80
2022-10-11T23:36:20.802Z,27.60
2022-10-11T23:38:56.720Z,23.00
2022-10-11T23:41:29.079Z,26.60
2022-10-11T23:43:57.429Z,25.90
2022-10-11T23:46:25.325Z,27.90
2022-10-11T23:48:53.298Z,23.60
2022-10-11T23:51:21.362Z,24.50
2022-10-11T23:53:49.163Z,24.30
2022-10-11T23:56:16.995Z,26.00
2022-10-11T23:58:44.799Z,26.80
